createdAt,value
2023-03-31T00:01:52.981Z,100104.63
2023-03-31T00:04:24.069Z,100097.56
2023-03-31T00:06:54.422Z,100096.09
2023-03-31T00:09:24.626Z,100099.22
2023-03-31T00:11:52.382Z,100101.75
2023-03-31T00:14:20.477Z,100091.66
2023-03-31T00:16:47.247Z,100092.25
2023-03-31T00:19:20.714Z,100082.88
2023-03-31T00:21:49.124Z,100073.75
2023-03-31T00:24:16.462Z,100067.75
2023-03-31T00:26:43.796Z,100065.41
2023-03-31T00:29:12.637Z,100061.09
2023-03-31T00:31:39.222Z,100056.28
2023-03-31T00:34:06.248Z,100054.81
2023-03-31T00:36:36.450Z,100041.97
2023-03-31T00:39:09.357Z,100039.19
2023-03-31T00:41:37.654Z,100034.50
2023-03-31T00:44:24.544Z,100039.19
2023-03-31T00:47:13.821Z,100028.94
2023-03-31T00:49:56.968Z,100016.53
2023-03-31T00:52:37.441Z,100008.47
2023-03-31T00:55:10.839Z,100022.25
2023-03-31T00:57:39.571Z,100016.78
2023-03-31T01:00:18.869Z,100013.16
2023-03-31T01:02:53.125Z,100003.25
2023-03-31T01:05:26.637Z,100005.84
2023-03-31T01:07:54.645Z,99994.41
2023-03-31T01:10:22.595Z,99983.13
2023-03-31T01:12:54.200Z,99982.22
2023-03-31T01:15:21.300Z,99978.44
2023-03-31T01:17:50.306Z,99973.38
2023-03-31T01:20:35.492Z,99970.69
2023-03-31T01:23:26.452Z,99960.28
2023-03-31T01:26:13.065Z,99956.00
2023-03-31T01:29:21.494Z,99958.63
2023-03-31T01:32:12.841Z,99955.94
2023-03-31T01:35:19.706Z,99953.41
2023-03-31T01:38:23.799Z,99954.16
2023-03-31T01:41:22.725Z,99944.72
2023-03-31T01:44:26.089Z,99931.25
2023-03-31T01:47:07.067Z,99936.47
2023-03-31T01:49:46.533Z,99943.84
2023-03-31T01:52:30.522Z,99927.38
2023-03-31T01:54:57.249Z,99916.34
2023-03-31T01:57:31.012Z,99913.91
2023-03-31T02:00:03.440Z,99902.28
2023-03-31T02:02:35.090Z,99892.41
2023-03-31T02:05:09.824Z,99892.81
2023-03-31T02:07:50.998Z,99888.13
2023-03-31T02:10:20.586Z,99881.78
2023-03-31T02:12:49.532Z,99878.25
2023-03-31T02:15:22.239Z,99881.47
2023-03-31T02:17:51.846Z,99871.06
2023-03-31T02:20:21.892Z,99861.69
2023-03-31T02:22:55.330Z,99863.16
2023-03-31T02:25:35.912Z,99849.72
2023-03-31T02:28:09.257Z,99845.38
2023-03-31T02:30:59.266Z,99840.88
2023-03-31T02:33:25.983Z,99826.59
2023-03-31T02:35:52.775Z,99823.38
2023-03-31T02:38:19.646Z,99822.59
2023-03-31T02:40:46.266Z,99816.25
2023-03-31T02:43:13.010Z,99797.41
2023-03-31T02:45:41.116Z,99805.16
2023-03-31T02:48:14.639Z,99799.69
2023-03-31T02:51:07.473Z,99781.38
2023-03-31T02:53:56.170Z,99789.72
2023-03-31T02:56:44.475Z,99770.78
2023-03-31T02:59:38.599Z,99758.41
2023-03-31T03:02:10.737Z,99755.78
2023-03-31T03:04:51.821Z,99746.34
2023-03-31T03:07:31.252Z,99737.84
2023-03-31T03:10:20.467Z,99731.94
2023-03-31T03:13:15.007Z,99714.53
2023-03-31T03:15:47.292Z,99715.56
2023-03-31T03:18:14.434Z,99708.19
2023-03-31T03:20:43.240Z,99705.91
2023-03-31T03:23:09.712Z,99700.47
2023-03-31T03:25:36.414Z,99703.50
2023-03-31T03:28:02.900Z,99696.41
2023-03-31T03:30:29.502Z,99694.13
2023-03-31T03:32:56.127Z,99690.31
2023-03-31T03:35:22.796Z,99670.97
2023-03-31T03:37:49.251Z,99663.84
2023-03-31T03:40:15.892Z,99674.19
2023-03-31T03:42:42.575Z,99666.50
2023-03-31T03:45:09.852Z,99654.41
2023-03-31T03:47:36.514Z,99655.97
2023-03-31T03:50:04.580Z,99638.97
2023-03-31T03:52:31.105Z,99633.50
2023-03-31T03:54:57.632Z,99634.81
2023-03-31T03:57:24.113Z,99634.50
2023-03-31T03:59:50.626Z,99638.63
2023-03-31T04:02:17.051Z,99620.00
2023-03-31T04:04:43.550Z,99605.97
2023-03-31T04:07:10.132Z,99603.78
2023-03-31T04:09:36.573Z,99604.22
2023-03-31T04:12:03.138Z,99596.75
2023-03-31T04:14:29.647Z,99593.66
2023-03-31T04:16:58.744Z,99590.34
2023-03-31T04:19:27.972Z,99584.88
2023-03-31T04:22:04.830Z,99586.66
2023-03-31T04:24:32.793Z,99566.69
2023-03-31T04:27:00.625Z,99548.69
2023-03-31T04:29:27.103Z,99548.47
2023-03-31T04:31:58.753Z,99556.38
2023-03-31T04:34:35.910Z,99546.03
2023-03-31T04:37:03.669Z,99555.69
2023-03-31T04:39:30.836Z,99562.13
2023-03-31T04:41:59.013Z,99543.66
2023-03-31T04:44:25.998Z,99540.63
2023-03-31T04:46:52.705Z,99515.19
2023-03-31T04:49:19.804Z,99520.94
2023-03-31T04:51:46.640Z,99520.06
2023-03-31T04:54:13.391Z,99499.41
2023-03-31T04:56:39.931Z,99497.06
2023-03-31T04:59:09.388Z,99496.28
2023-03-31T05:01:36.426Z,99489.97
2023-03-31T05:04:05.425Z,99496.28
2023-03-31T05:06:32.193Z,99494.31
2023-03-31T05:08:58.648Z,99482.19
2023-03-31T05:11:25.914Z,99470.94
2023-03-31T05:13:52.367Z,99476.34
2023-03-31T05:16:18.853Z,99463.47
2023-03-31T05:18:48.619Z,99459.69
2023-03-31T05:21:18.604Z,99449.47
2023-03-31T05:23:46.066Z,99435.25
2023-03-31T05:26:13.854Z,99425.06
2023-03-31T05:28:41.236Z,99412.38
2023-03-31T05:31:09.319Z,99398.75
2023-03-31T05:33:40.253Z,99410.06
2023-03-31T05:36:11.246Z,99409.28
2023-03-31T05:38:38.311Z,99398.88
2023-03-31T05:41:04.931Z,99384.19
2023-03-31T05:43:31.424Z,99387.09
2023-03-31T05:45:58.120Z,99382.44
2023-03-31T05:48:24.701Z,99376.66
2023-03-31T05:50:51.192Z,99363.69
2023-03-31T05:53:17.665Z,99351.13
2023-03-31T05:55:44.323Z,99364.78
2023-03-31T05:58:10.956Z,99357.91
2023-03-31T06:00:37.895Z,99354.47
2023-03-31T06:03:04.702Z,99352.34
2023-03-31T06:05:32.367Z,99342.28
2023-03-31T06:07:58.883Z,99341.25
2023-03-31T06:10:28.099Z,99342.94
2023-03-31T06:12:54.569Z,99335.84
2023-03-31T06:15:21.069Z,99329.19
2023-03-31T06:17:48.202Z,99325.41
2023-03-31T06:20:27.346Z,99337.03
2023-03-31T06:22:54.949Z,99330.59
2023-03-31T06:25:21.801Z,99325.28
2023-03-31T06:27:48.470Z,99320.50
2023-03-31T06:30:15.219Z,99306.63
2023-03-31T06:32:41.756Z,99317.63
2023-03-31T06:35:08.658Z,99313.06
2023-03-31T06:37:35.880Z,99312.75
2023-03-31T06:40:02.921Z,99305.19
2023-03-31T06:42:29.434Z,99309.28
2023-03-31T06:44:56.016Z,99311.41
2023-03-31T06:47:22.618Z,99313.41
2023-03-31T06:49:49.490Z,99300.84
2023-03-31T06:52:16.462Z,99307.09
2023-03-31T06:54:43.190Z,99300.31
2023-03-31T06:57:09.865Z,99304.19
2023-03-31T06:59:36.595Z,99317.63
2023-03-31T07:02:03.241Z,99310.53
2023-03-31T07:04:29.903Z,99311.41
2023-03-31T07:06:58.549Z,99302.06
2023-03-31T07:09:25.023Z,99311.84
2023-03-31T07:11:51.517Z,99301.94
2023-03-31T07:14:18.042Z,99310.47
2023-03-31T07:16:44.627Z,99303.63
2023-03-31T07:19:11.272Z,99294.75
2023-03-31T07:21:37.914Z,99297.41
2023-03-31T07:24:04.653Z,99288.09
2023-03-31T07:26:31.132Z,99295.97
2023-03-31T07:28:57.825Z,99300.03
2023-03-31T07:31:24.441Z,99298.84
2023-03-31T07:33:51.149Z,99297.75
2023-03-31T07:36:18.188Z,99295.41
2023-03-31T07:38:48.586Z,99289.28
2023-03-31T07:41:18.198Z,99289.53
2023-03-31T07:43:45.538Z,99290.84
2023-03-31T07:46:16.264Z,99295.28
2023-03-31T07:48:43.915Z,99289.38
2023-03-31T07:51:10.547Z,99288.63
2023-03-31T07:53:37.015Z,99295.94
2023-03-31T07:56:03.569Z,99285.22
2023-03-31T07:58:30.387Z,99295.16
2023-03-31T08:00:56.924Z,99286.09
2023-03-31T08:03:23.396Z,99281.78
2023-03-31T08:05:54.469Z,99285.97
2023-03-31T08:08:21.566Z,99289.97
2023-03-31T08:10:48.900Z,99285.22
2023-03-31T08:13:15.495Z,99282.88
2023-03-31T08:15:42.085Z,99293.19
2023-03-31T08:18:08.705Z,99290.75
2023-03-31T08:20:35.223Z,99277.66
2023-03-31T08:23:01.732Z,99269.66
2023-03-31T08:25:28.183Z,99269.66
2023-03-31T08:27:56.039Z,99255.16
2023-03-31T08:30:22.738Z,99261.81
2023-03-31T08:32:49.338Z,99250.72
2023-03-31T08:35:15.855Z,99245.50
2023-03-31T08:37:42.469Z,99248.38
2023-03-31T08:40:18.228Z,99247.72
2023-03-31T08:42:56.037Z,99247.16
2023-03-31T08:45:37.945Z,99246.72
2023-03-31T08:48:11.753Z,99241.84
2023-03-31T08:50:48.042Z,99240.84
2023-03-31T08:53:24.678Z,99235.41
2023-03-31T08:55:53.632Z,99233.75
2023-03-31T08:58:43.138Z,99231.97
2023-03-31T09:01:24.889Z,99233.94
2023-03-31T09:03:58.381Z,99237.72
2023-03-31T09:06:38.198Z,99240.59
2023-03-31T09:09:10.751Z,99239.69
2023-03-31T09:11:43.693Z,99227.84
2023-03-31T09:14:12.940Z,99230.16
2023-03-31T09:16:54.728Z,99227.38
2023-03-31T09:19:30.314Z,99221.84
2023-03-31T09:22:00.439Z,99223.59
2023-03-31T09:24:40.678Z,99219.75
2023-03-31T09:27:12.228Z,99217.25
2023-03-31T09:30:04.603Z,99205.94
2023-03-31T09:32:32.535Z,99213.78
2023-03-31T09:35:16.111Z,99209.16
2023-03-31T09:37:42.865Z,99209.16
2023-03-31T09:40:19.968Z,99207.78
2023-03-31T09:42:49.804Z,99204.00
2023-03-31T09:45:19.955Z,99195.22
2023-03-31T09:47:52.042Z,99195.13
2023-03-31T09:50:18.719Z,99186.13
2023-03-31T09:52:51.989Z,99180.13
2023-03-31T09:55:38.338Z,99172.34
2023-03-31T09:58:14.477Z,99170.03
2023-03-31T10:00:43.397Z,99173.44
2023-03-31T10:03:14.002Z,99157.31
2023-03-31T10:05:51.131Z,99157.75
2023-03-31T10:08:17.591Z,99156.66
2023-03-31T10:10:57.329Z,99148.06
2023-03-31T10:13:27.262Z,99142.97
2023-03-31T10:15:56.132Z,99140.91
2023-03-31T10:18:33.321Z,99130.44
2023-03-31T10:21:01.954Z,99131.44
2023-03-31T10:23:33.477Z,99132.72
2023-03-31T10:26:02.059Z,99128.19
2023-03-31T10:28:32.929Z,99124.06
2023-03-31T10:31:01.570Z,99129.19
2023-03-31T10:33:31.744Z,99137.53
2023-03-31T10:36:09.047Z,99135.84
2023-03-31T10:38:40.653Z,99135.53
2023-03-31T10:41:07.769Z,99148.03
2023-03-31T10:43:41.840Z,99163.13
2023-03-31T10:46:09.656Z,99150.94
2023-03-31T10:48:39.840Z,99138.31
2023-03-31T10:51:14.267Z,99133.28
2023-03-31T10:53:44.317Z,99126.63
2023-03-31T10:56:42.030Z,99125.00
2023-03-31T10:59:20.737Z,99117.75
2023-03-31T11:02:11.702Z,99126.44
2023-03-31T11:04:50.457Z,99117.28
2023-03-31T11:07:32.414Z,99114.50
2023-03-31T11:10:32.796Z,99115.47
2023-03-31T11:13:04.182Z,99101.22
2023-03-31T11:15:48.404Z,99104.47
2023-03-31T11:18:30.024Z,99112.56
2023-03-31T11:20:59.512Z,99116.25
2023-03-31T11:23:42.939Z,99107.91
2023-03-31T11:26:12.400Z,99120.75
2023-03-31T11:29:17.928Z,99135.22
2023-03-31T11:32:03.041Z,99169.09
2023-03-31T11:34:44.762Z,99125.88
2023-03-31T11:37:31.901Z,99116.66
2023-03-31T11:40:19.953Z,99133.25
2023-03-31T11:42:59.214Z,99138.97
2023-03-31T11:45:38.263Z,99130.94
2023-03-31T11:48:17.900Z,99120.63
2023-03-31T11:50:47.292Z,99120.81
2023-03-31T11:53:20.976Z,99116.50
2023-03-31T11:55:52.773Z,99116.09
2023-03-31T11:58:30.055Z,99119.44
2023-03-31T12:01:04.611Z,99123.78
2023-03-31T12:03:42.297Z,99116.72
2023-03-31T12:06:20.002Z,99113.91
2023-03-31T12:08:54.339Z,99120.72
2023-03-31T12:11:36.020Z,99118.53
2023-03-31T12:14:25.062Z,99100.63
2023-03-31T12:17:00.444Z,99106.66
2023-03-31T12:19:44.583Z,99106.03
2023-03-31T12:22:44.288Z,99103.72
2023-03-31T12:25:16.363Z,99107.41
2023-03-31T12:27:45.084Z,99092.28
2023-03-31T12:30:22.636Z,99087.66
2023-03-31T12:32:56.022Z,99079.28
2023-03-31T12:36:00.557Z,99078.66
2023-03-31T12:39:02.652Z,99082.25
2023-03-31T12:41:52.958Z,99088.72
2023-03-31T12:44:28.457Z,99081.59
2023-03-31T12:47:29.692Z,99077.75
2023-03-31T12:50:16.376Z,99092.91
2023-03-31T12:53:00.221Z,99082.84
2023-03-31T12:55:45.752Z,99090.09
2023-03-31T12:58:32.320Z,99104.94
2023-03-31T13:01:17.429Z,99079.13
2023-03-31T13:03:51.560Z,99078.03
2023-03-31T13:06:30.386Z,99075.13
2023-03-31T13:09:04.340Z,99071.09
2023-03-31T13:11:33.824Z,99063.50
2023-03-31T13:14:06.552Z,99060.25
2023-03-31T13:16:35.301Z,99049.56
2023-03-31T13:19:02.110Z,99047.09
2023-03-31T13:21:28.718Z,99055.59
2023-03-31T13:24:00.746Z,99037.91
2023-03-31T13:26:56.772Z,99037.25
2023-03-31T13:29:43.701Z,99034.91
2023-03-31T13:32:12.942Z,99022.25
2023-03-31T13:34:44.155Z,99041.13
2023-03-31T13:37:28.951Z,99027.06
2023-03-31T13:40:22.627Z,99038.66
2023-03-31T13:43:37.276Z,99035.13
2023-03-31T13:46:42.090Z,99029.09
2023-03-31T13:49:30.371Z,99025.66
2023-03-31T13:52:05.403Z,99017.94
2023-03-31T13:55:06.155Z,99021.44
2023-03-31T13:57:32.665Z,99008.72
2023-03-31T14:00:12.389Z,99021.25
2023-03-31T14:03:14.286Z,99022.50
2023-03-31T14:05:43.491Z,99018.09
2023-03-31T14:08:14.896Z,99031.56
2023-03-31T14:10:42.960Z,99008.13
2023-03-31T14:13:12.705Z,99004.38
2023-03-31T14:15:48.493Z,99012.84
2023-03-31T14:18:27.091Z,99007.56
2023-03-31T14:21:13.482Z,98997.97
2023-03-31T14:24:04.665Z,98991.72
2023-03-31T14:26:37.362Z,98993.63
2023-03-31T14:29:22.231Z,98992.44
2023-03-31T14:31:51.427Z,98986.50
2023-03-31T14:34:42.892Z,98980.66
2023-03-31T14:37:17.754Z,98976.22
2023-03-31T14:39:47.506Z,98965.66
2023-03-31T14:42:16.980Z,98965.72
2023-03-31T14:44:46.324Z,98960.16
2023-03-31T14:47:21.962Z,98956.66
2023-03-31T14:49:58.677Z,98964.00
2023-03-31T14:52:29.555Z,98945.59
2023-03-31T14:54:56.028Z,98945.88
2023-03-31T14:57:38.295Z,98953.13
2023-03-31T15:00:08.850Z,98955.09
2023-03-31T15:02:40.624Z,98965.78
2023-03-31T15:05:10.679Z,98959.19
2023-03-31T15:07:37.534Z,99004.88
2023-03-31T15:10:05.541Z,99020.69
2023-03-31T15:12:32.538Z,99013.41
2023-03-31T15:15:06.748Z,99004.88
2023-03-31T15:17:41.805Z,99007.97
2023-03-31T15:20:28.097Z,99008.69
2023-03-31T15:22:59.512Z,99004.38
2023-03-31T15:25:32.801Z,99003.75
2023-03-31T15:28:18.140Z,99002.81
2023-03-31T15:30:48.936Z,98996.81
2023-03-31T15:33:31.686Z,98998.78
2023-03-31T15:35:58.581Z,99005.91
2023-03-31T15:38:31.904Z,99011.56
2023-03-31T15:41:00.004Z,99003.69
2023-03-31T15:43:32.349Z,98976.34
2023-03-31T15:46:00.840Z,98973.47
2023-03-31T15:48:34.336Z,98979.50
2023-03-31T15:51:05.429Z,98980.59
2023-03-31T15:53:46.059Z,98977.94
2023-03-31T15:56:46.544Z,98976.72
2023-03-31T15:59:34.424Z,98988.19
2023-03-31T16:02:13.731Z,98986.91
2023-03-31T16:04:40.597Z,98967.50
2023-03-31T16:07:36.588Z,98970.72
2023-03-31T16:10:21.308Z,98970.59
2023-03-31T16:13:02.384Z,98967.63
2023-03-31T16:15:31.476Z,98966.22
2023-03-31T16:18:03.094Z,98967.91
2023-03-31T16:20:37.180Z,98960.53
2023-03-31T16:23:21.340Z,98966.69
2023-03-31T16:25:48.304Z,98959.13
2023-03-31T16:28:36.804Z,98959.91
2023-03-31T16:31:05.311Z,98959.75
2023-03-31T16:33:52.908Z,98958.84
2023-03-31T16:36:19.478Z,98962.38
2023-03-31T16:38:46.889Z,98957.13
2023-03-31T16:41:15.785Z,98958.34
2023-03-31T16:43:45.092Z,98959.47
2023-03-31T16:46:11.672Z,98967.28
2023-03-31T16:48:38.455Z,98952.16
2023-03-31T16:51:05.162Z,98969.78
2023-03-31T16:53:34.725Z,98957.09
2023-03-31T16:56:09.168Z,98975.06
2023-03-31T16:58:37.763Z,98967.03
2023-03-31T17:01:07.080Z,98976.75
2023-03-31T17:03:35.139Z,98977.16
2023-03-31T17:06:06.787Z,98976.09
2023-03-31T17:08:33.655Z,98963.22
2023-03-31T17:11:06.971Z,98969.28
2023-03-31T17:13:33.896Z,98969.59
2023-03-31T17:16:08.707Z,98965.72
2023-03-31T17:18:44.471Z,98965.81
2023-03-31T17:21:13.661Z,98962.78
2023-03-31T17:23:41.151Z,98961.06
2023-03-31T17:26:12.811Z,98960.97
2023-03-31T17:28:40.367Z,98960.25
2023-03-31T17:31:18.884Z,98971.66
2023-03-31T17:33:46.261Z,98972.13
2023-03-31T17:36:13.150Z,98967.28
2023-03-31T17:38:40.125Z,98970.25
2023-03-31T17:41:09.899Z,98976.25
2023-03-31T17:43:37.932Z,98971.31
2023-03-31T17:46:12.882Z,98978.34
2023-03-31T17:48:39.919Z,98975.22
2023-03-31T17:51:08.157Z,98980.25
2023-03-31T17:53:36.293Z,98967.03
2023-03-31T17:56:03.926Z,98983.03
2023-03-31T17:58:31.156Z,98981.84
2023-03-31T18:00:58.426Z,98979.78
2023-03-31T18:03:27.471Z,98981.31
2023-03-31T18:05:54.019Z,98979.50
2023-03-31T18:08:20.489Z,98974.59
2023-03-31T18:10:47.039Z,98983.38
2023-03-31T18:13:13.516Z,98979.56
2023-03-31T18:15:46.664Z,98986.16
2023-03-31T18:18:13.301Z,98990.72
2023-03-31T18:20:39.894Z,98980.72
2023-03-31T18:23:06.386Z,98990.72
2023-03-31T18:25:33.214Z,98991.50
2023-03-31T18:27:59.933Z,98985.50
2023-03-31T18:30:26.649Z,98984.72
2023-03-31T18:32:53.437Z,98984.91
2023-03-31T18:35:20.790Z,98973.69
2023-03-31T18:37:47.283Z,98974.34
2023-03-31T18:40:14.993Z,98978.22
2023-03-31T18:42:42.044Z,98974.78
2023-03-31T18:45:12.519Z,98980.22
2023-03-31T18:47:39.256Z,98974.59
2023-03-31T18:50:06.817Z,98981.31
2023-03-31T18:52:35.373Z,98974.94
2023-03-31T18:55:02.735Z,98979.50
2023-03-31T18:57:29.419Z,98982.59
2023-03-31T18:59:55.985Z,98987.66
2023-03-31T19:02:22.484Z,98985.13
2023-03-31T19:04:49.821Z,98992.66
2023-03-31T19:07:17.529Z,98981.31
2023-03-31T19:09:44.062Z,98990.41
2023-03-31T19:12:11.852Z,98984.63
2023-03-31T19:14:38.449Z,98982.41
2023-03-31T19:17:05.024Z,98977.75
2023-03-31T19:19:31.496Z,98990.09
2023-03-31T19:21:58.529Z,98971.38
2023-03-31T19:24:25.089Z,98974.97
2023-03-31T19:26:51.598Z,98976.84
2023-03-31T19:29:18.041Z,98972.28
2023-03-31T19:31:47.299Z,98972.72
2023-03-31T19:34:14.079Z,98978.72
2023-03-31T19:36:40.621Z,98986.53
2023-03-31T19:39:07.316Z,98977.44
2023-03-31T19:41:34.998Z,98985.31
2023-03-31T19:44:01.615Z,98992.16
2023-03-31T19:46:28.796Z,98982.75
2023-03-31T19:48:55.292Z,98987.19
2023-03-31T19:51:21.753Z,98983.72
2023-03-31T19:53:48.246Z,98981.19
2023-03-31T19:56:17.756Z,98981.84
2023-03-31T19:58:44.533Z,98973.09
2023-03-31T20:01:15.772Z,98973.09
2023-03-31T20:03:42.384Z,98972.66
2023-03-31T20:06:11.882Z,98963.06
2023-03-31T20:08:41.465Z,98968.03
2023-03-31T20:11:13.692Z,98962.72
2023-03-31T20:13:42.164Z,98970.84
2023-03-31T20:16:12.725Z,98970.06
2023-03-31T20:18:40.021Z,98964.81
2023-03-31T20:21:08.390Z,98971.75
2023-03-31T20:23:36.495Z,98966.44
2023-03-31T20:26:03.239Z,98966.66
2023-03-31T20:28:29.894Z,98964.63
2023-03-31T20:30:56.480Z,98971.59
2023-03-31T20:33:24.044Z,98958.63
2023-03-31T20:36:13.533Z,98964.13
2023-03-31T20:38:42.815Z,98978.78
2023-03-31T20:41:10.908Z,98974.78
2023-03-31T20:43:38.377Z,98975.66
2023-03-31T20:46:06.603Z,98974.94
2023-03-31T20:48:39.888Z,98975.47
2023-03-31T20:51:08.594Z,98976.91
2023-03-31T20:53:44.456Z,98969.22
2023-03-31T20:56:13.910Z,98972.25
2023-03-31T20:58:43.971Z,98976.69
2023-03-31T21:01:11.538Z,98976.91
2023-03-31T21:03:38.120Z,98967.03
2023-03-31T21:06:11.655Z,98970.38
2023-03-31T21:08:39.538Z,98976.28
2023-03-31T21:11:06.464Z,98979.22
2023-03-31T21:13:33.513Z,98973.56
2023-03-31T21:16:00.733Z,98975.16
2023-03-31T21:18:29.250Z,98979.13
2023-03-31T21:20:58.792Z,98975.00
2023-03-31T21:23:26.428Z,98983.69
2023-03-31T21:25:56.735Z,98976.81
2023-03-31T21:28:25.423Z,98984.78
2023-03-31T21:31:02.358Z,98973.69
2023-03-31T21:33:30.384Z,98981.88
2023-03-31T21:35:58.486Z,98975.78
2023-03-31T21:38:26.105Z,98973.88
2023-03-31T21:40:52.688Z,98979.41
2023-03-31T21:43:19.843Z,98972.44
2023-03-31T21:45:47.272Z,98980.56
2023-03-31T21:48:14.236Z,98973.22
2023-03-31T21:50:41.528Z,98971.34
2023-03-31T21:53:09.235Z,98970.66
2023-03-31T21:55:38.026Z,98976.81
2023-03-31T21:58:05.656Z,98971.44
2023-03-31T22:00:32.556Z,98973.47
2023-03-31T22:03:16.394Z,98986.19
2023-03-31T22:05:45.645Z,98965.56
2023-03-31T22:08:12.134Z,98961.56
2023-03-31T22:10:38.581Z,98978.34
2023-03-31T22:13:05.293Z,98964.19
2023-03-31T22:15:32.014Z,98986.75
2023-03-31T22:17:58.754Z,98957.53
2023-03-31T22:20:25.252Z,98955.13
2023-03-31T22:22:51.779Z,98964.44
2023-03-31T22:25:18.247Z,98951.88
2023-03-31T22:27:44.745Z,98957.44
2023-03-31T22:30:11.737Z,98961.41
2023-03-31T22:32:38.335Z,98954.97
2023-03-31T22:35:05.257Z,98966.66
2023-03-31T22:37:32.177Z,98951.09
2023-03-31T22:39:58.677Z,98959.66
2023-03-31T22:42:25.139Z,98964.78
2023-03-31T22:44:51.622Z,98960.22
2023-03-31T22:47:18.100Z,98955.47
2023-03-31T22:49:44.715Z,98973.19
2023-03-31T22:52:11.638Z,98963.38
2023-03-31T22:54:40.130Z,98959.97
2023-03-31T22:57:07.733Z,98962.59
2023-03-31T22:59:34.284Z,98954.28
2023-03-31T23:02:00.791Z,98967.03
2023-03-31T23:04:27.495Z,98955.75
2023-03-31T23:06:55.138Z,98961.97
2023-03-31T23:09:23.685Z,98958.63
2023-03-31T23:11:50.571Z,98957.84
2023-03-31T23:14:17.295Z,98959.41
2023-03-31T23:16:44.310Z,98955.75
2023-03-31T23:19:12.030Z,98966.19
2023-03-31T23:21:38.908Z,98950.91
2023-03-31T23:24:05.709Z,98948.22
2023-03-31T23:26:34.003Z,98956.66
2023-03-31T23:29:01.044Z,98958.06
2023-03-31T23:31:30.245Z,98950.91
2023-03-31T23:33:58.308Z,98932.94
2023-03-31T23:36:25.924Z,98950.78
2023-03-31T23:38:55.531Z,98950.25
2023-03-31T23:41:26.357Z,98958.22
2023-03-31T23:43:53.676Z,98955.09
2023-03-31T23:46:20.510Z,98944.78
2023-03-31T23:48:47.051Z,98929.03
2023-03-31T23:51:13.634Z,98937.69
2023-03-31T23:53:40.443Z,98947.00
2023-03-31T23:56:10.476Z,98939.81
2023-03-31T23:58:37.562Z,98940.72
